createdAt,value
2023-04-06T00:01:09.296Z,25.78
2023-04-06T00:03:36.677Z,25.76
2023-04-06T00:06:05.747Z,25.77
2023-04-06T00:08:32.715Z,25.69
2023-04-06T00:10:59.660Z,25.58
2023-04-06T00:13:26.562Z,25.67
2023-04-06T00:15:53.481Z,25.71
2023-04-06T00:18:20.835Z,25.84
2023-04-06T00:20:47.766Z,25.47
2023-04-06T00:23:16.424Z,25.56
2023-04-06T00:25:43.290Z,25.33
2023-04-06T00:28:10.306Z,25.68
2023-04-06T00:30:37.203Z,25.38
2023-04-06T00:33:04.584Z,25.37
2023-04-06T00:35:31.701Z,25.48
2023-04-06T00:37:58.699Z,25.27
2023-04-06T00:40:29.409Z,25.46
2023-04-06T00:42:56.490Z,25.53
2023-04-06T00:45:23.377Z,25.54
2023-04-06T00:47:50.506Z,25.69
2023-04-06T00:50:18.161Z,25.28
2023-04-06T00:52:45.528Z,25.39
2023-04-06T00:55:12.537Z,25.43
2023-04-06T00:57:44.300Z,25.23
2023-04-06T01:00:13.057Z,25.44
2023-04-06T01:02:40.827Z,25.47
2023-04-06T01:05:09.457Z,25.53
2023-04-06T01:07:46.881Z,25.52
2023-04-06T01:10:24.697Z,25.19
2023-04-06T01:12:54.265Z,24.94
2023-04-06T01:15:40.187Z,25.00
2023-04-06T01:18:11.267Z,24.95
2023-04-06T01:20:43.702Z,25.01
2023-04-06T01:23:12.680Z,25.08
2023-04-06T01:25:45.554Z,25.26
2023-04-06T01:28:12.975Z,24.71
2023-04-06T01:30:54.046Z,24.71
2023-04-06T01:33:37.979Z,24.86
2023-04-06T01:36:09.091Z,24.84
2023-04-06T01:38:37.956Z,24.70
2023-04-06T01:41:05.249Z,24.66
2023-04-06T01:43:42.935Z,24.54
2023-04-06T01:46:11.170Z,24.81
2023-04-06T01:48:41.510Z,24.77
2023-04-06T01:51:16.812Z,24.59
2023-04-06T01:53:54.070Z,24.68
2023-04-06T01:56:25.574Z,24.65
2023-04-06T01:59:03.201Z,24.47
2023-04-06T02:01:36.886Z,24.55
2023-04-06T02:04:04.013Z,24.65
2023-04-06T02:06:31.661Z,24.47
2023-04-06T02:09:00.947Z,24.55
2023-04-06T02:11:27.931Z,24.32
2023-04-06T02:13:56.866Z,24.51
2023-04-06T02:16:27.621Z,24.25
2023-04-06T02:18:54.647Z,24.41
2023-04-06T02:21:21.585Z,24.06
2023-04-06T02:23:48.631Z,24.06
2023-04-06T02:26:16.884Z,23.99
2023-04-06T02:28:43.853Z,24.25
2023-04-06T02:31:10.797Z,24.04
2023-04-06T02:33:38.284Z,23.94
2023-04-06T02:36:06.797Z,23.92
2023-04-06T02:38:33.718Z,23.83
2023-04-06T02:41:01.989Z,24.24
2023-04-06T02:43:31.342Z,23.98
2023-04-06T02:46:18.543Z,24.23
2023-04-06T02:48:45.567Z,24.07
2023-04-06T02:51:14.354Z,23.93
2023-04-06T02:53:45.400Z,24.00
2023-04-06T02:56:13.730Z,23.65
2023-04-06T02:58:49.355Z,24.14
2023-04-06T03:01:16.959Z,24.01
2023-04-06T03:03:44.440Z,24.07
2023-04-06T03:06:18.881Z,23.84
2023-04-06T03:08:46.395Z,24.33
2023-04-06T03:11:13.951Z,23.91
2023-04-06T03:13:43.305Z,23.79
2023-04-06T03:16:12.417Z,24.13
2023-04-06T03:18:40.928Z,23.93
2023-04-06T03:21:07.797Z,24.14
2023-04-06T03:23:44.730Z,23.94
2023-04-06T03:26:11.741Z,23.93
2023-04-06T03:28:38.602Z,24.02
2023-04-06T03:31:06.928Z,24.03
2023-04-06T03:33:58.056Z,23.63
2023-04-06T03:36:33.118Z,23.62
2023-04-06T03:39:01.119Z,23.94
2023-04-06T03:41:28.054Z,23.79
2023-04-06T03:44:06.928Z,23.67
2023-04-06T03:46:33.985Z,23.85
2023-04-06T03:49:02.470Z,23.99
2023-04-06T03:51:29.733Z,23.84
2023-04-06T03:53:56.677Z,23.66
2023-04-06T03:56:23.553Z,23.61
2023-04-06T03:58:53.068Z,23.86
2023-04-06T04:01:21.521Z,23.89
2023-04-06T04:03:50.966Z,23.66
2023-04-06T04:06:20.995Z,23.66
2023-04-06T04:08:47.921Z,23.80
2023-04-06T04:11:17.075Z,23.61
2023-04-06T04:13:47.175Z,23.82
2023-04-06T04:16:14.414Z,23.78
2023-04-06T04:18:44.686Z,24.04
2023-04-06T04:21:11.760Z,23.57
2023-04-06T04:23:39.986Z,23.93
2023-04-06T04:26:06.941Z,23.78
2023-04-06T04:28:35.291Z,23.71
2023-04-06T04:31:02.164Z,23.44
2023-04-06T04:33:32.348Z,23.29
2023-04-06T04:36:01.918Z,23.79
2023-04-06T04:38:33.712Z,23.86
2023-04-06T04:41:02.621Z,23.82
2023-04-06T04:43:32.292Z,23.94
2023-04-06T04:46:01.465Z,23.84
2023-04-06T04:48:40.437Z,24.07
2023-04-06T04:51:08.232Z,24.44
2023-04-06T04:53:49.474Z,24.24
2023-04-06T04:56:23.258Z,24.19
2023-04-06T04:58:55.203Z,24.08
2023-04-06T05:01:22.804Z,24.25
2023-04-06T05:03:50.207Z,24.49
2023-04-06T05:06:18.096Z,24.63
2023-04-06T05:08:45.019Z,24.76
2023-04-06T05:11:12.564Z,24.96
2023-04-06T05:13:46.497Z,25.02
2023-04-06T05:16:18.226Z,25.13
2023-04-06T05:18:45.557Z,25.04
2023-04-06T05:21:12.900Z,24.85
2023-04-06T05:24:11.805Z,25.16
2023-04-06T05:26:40.541Z,25.10
2023-04-06T05:29:17.879Z,25.21
2023-04-06T05:31:45.003Z,25.32
2023-04-06T05:34:13.438Z,25.32
2023-04-06T05:36:41.715Z,25.08
2023-04-06T05:39:17.374Z,25.12
2023-04-06T05:41:49.312Z,25.10
2023-04-06T05:44:20.106Z,24.68
2023-04-06T05:46:52.360Z,24.26
2023-04-06T05:49:19.320Z,23.97
2023-04-06T05:51:46.128Z,23.94
2023-04-06T05:54:13.365Z,23.46
2023-04-06T05:56:40.938Z,23.37
2023-04-06T05:59:11.667Z,23.58
2023-04-06T06:01:40.190Z,23.75
2023-04-06T06:04:07.458Z,23.34
2023-04-06T06:06:37.867Z,23.45
2023-04-06T06:09:16.527Z,23.32
2023-04-06T06:11:53.345Z,23.42
2023-04-06T06:14:24.732Z,23.34
2023-04-06T06:16:53.039Z,23.29
2023-04-06T06:19:20.068Z,23.31
2023-04-06T06:21:47.753Z,23.56
2023-04-06T06:24:15.573Z,23.91
2023-04-06T06:26:42.530Z,23.94
2023-04-06T06:29:11.557Z,23.96
2023-04-06T06:31:39.916Z,23.86
2023-04-06T06:34:08.623Z,23.82
2023-04-06T06:36:37.176Z,23.89
2023-04-06T06:39:07.985Z,23.54
2023-04-06T06:41:35.584Z,24.11
2023-04-06T06:44:03.246Z,24.06
2023-04-06T06:46:30.278Z,24.48
2023-04-06T06:48:57.198Z,24.61
2023-04-06T06:51:25.394Z,24.88
2023-04-06T06:53:53.144Z,24.71
2023-04-06T06:56:20.113Z,24.66
2023-04-06T06:58:47.178Z,24.69
2023-04-06T07:01:14.330Z,24.73
2023-04-06T07:03:41.281Z,24.54
2023-04-06T07:06:08.512Z,24.62
2023-04-06T07:08:36.839Z,24.53
2023-04-06T07:11:03.779Z,24.59
2023-04-06T07:13:30.754Z,24.55
2023-04-06T07:15:59.250Z,24.44
2023-04-06T07:18:26.292Z,24.78
2023-04-06T07:20:53.200Z,24.56
2023-04-06T07:23:20.317Z,24.63
2023-04-06T07:25:48.705Z,24.77
2023-04-06T07:28:15.640Z,25.26
2023-04-06T07:30:43.671Z,24.92
2023-04-06T07:33:12.224Z,24.74
2023-04-06T07:35:40.553Z,24.64
2023-04-06T07:38:07.895Z,24.66
2023-04-06T07:40:36.071Z,24.82
2023-04-06T07:43:05.079Z,25.03
2023-04-06T07:45:32.543Z,24.98
2023-04-06T07:48:01.155Z,24.90
2023-04-06T07:50:28.886Z,24.92
2023-04-06T07:52:56.771Z,24.96
2023-04-06T07:55:23.740Z,25.18
2023-04-06T07:57:51.606Z,24.94
2023-04-06T08:02:47.105Z,25.06
2023-04-06T08:05:14.178Z,25.24
2023-04-06T08:07:41.130Z,25.40
2023-04-06T08:10:08.481Z,25.32
2023-04-06T08:12:36.162Z,25.45
2023-04-06T08:15:04.664Z,25.40
2023-04-06T08:17:35.130Z,25.56
2023-04-06T08:20:04.385Z,25.61
2023-04-06T08:22:31.499Z,25.24
2023-04-06T08:24:58.416Z,25.36
2023-04-06T08:27:25.360Z,25.52
2023-04-06T08:29:52.541Z,25.49
2023-04-06T08:32:19.505Z,25.16
2023-04-06T08:34:47.923Z,25.34
2023-04-06T08:37:14.886Z,25.17
2023-04-06T08:39:41.781Z,25.30
2023-04-06T08:42:13.721Z,25.32
2023-04-06T08:44:42.185Z,25.35
2023-04-06T08:47:09.140Z,25.22
2023-04-06T08:49:38.438Z,25.40
2023-04-06T08:52:08.997Z,25.30
2023-04-06T08:54:36.024Z,25.42
2023-04-06T08:57:03.954Z,25.36
2023-04-06T08:59:31.640Z,25.69
2023-04-06T09:02:00.160Z,25.61
2023-04-06T09:04:27.936Z,25.64
2023-04-06T09:06:55.204Z,25.53
2023-04-06T09:09:26.009Z,25.60
2023-04-06T09:11:53.575Z,25.68
2023-04-06T09:14:35.631Z,25.38
2023-04-06T09:17:02.655Z,25.63
2023-04-06T09:19:29.561Z,25.36
2023-04-06T09:22:03.751Z,25.59
2023-04-06T09:24:42.662Z,25.80
2023-04-06T09:27:09.581Z,25.73
2023-04-06T09:29:37.700Z,25.71
2023-04-06T09:32:05.793Z,25.73
2023-04-06T09:34:32.918Z,25.68
2023-04-06T09:36:59.884Z,25.70
2023-04-06T09:39:27.085Z,25.80
2023-04-06T09:41:56.741Z,25.73
2023-04-06T09:44:25.112Z,25.80
2023-04-06T09:47:00.362Z,25.91
2023-04-06T09:49:30.863Z,25.95
2023-04-06T09:52:00.716Z,25.95
2023-04-06T09:54:30.691Z,25.97
2023-04-06T09:57:05.073Z,25.94
2023-04-06T09:59:39.596Z,26.25
2023-04-06T10:02:09.520Z,26.02
2023-04-06T10:04:44.217Z,26.03
2023-04-06T10:07:12.982Z,25.82
2023-04-06T10:09:40.230Z,25.95
2023-04-06T10:12:08.979Z,26.09
2023-04-06T10:14:37.962Z,26.06
2023-04-06T10:17:06.023Z,26.08
2023-04-06T10:19:42.843Z,25.83
2023-04-06T10:22:13.433Z,26.02
2023-04-06T10:24:40.345Z,25.72
2023-04-06T10:27:12.227Z,25.82
2023-04-06T10:29:47.532Z,25.69
2023-04-06T10:32:14.540Z,25.78
2023-04-06T10:34:41.528Z,25.65
2023-04-06T10:37:13.785Z,25.97
2023-04-06T10:39:48.083Z,25.98
2023-04-06T10:42:16.359Z,25.64
2023-04-06T10:44:45.507Z,26.00
2023-04-06T10:47:19.075Z,26.02
2023-04-06T10:49:46.097Z,25.87
2023-04-06T10:52:13.454Z,25.92
2023-04-06T10:54:48.992Z,25.76
2023-04-06T10:57:29.057Z,25.78
2023-04-06T10:59:55.937Z,25.69
2023-04-06T11:02:22.972Z,25.62
2023-04-06T11:04:57.369Z,25.77
2023-04-06T11:07:25.755Z,25.68
2023-04-06T11:10:11.244Z,25.70
2023-04-06T11:15:08.724Z,25.58
2023-04-06T11:17:37.064Z,25.67
2023-04-06T11:20:11.222Z,25.61
2023-04-06T11:22:49.377Z,25.52
2023-04-06T11:25:18.126Z,25.50
2023-04-06T11:27:47.465Z,25.60
2023-04-06T11:30:14.742Z,26.07
2023-04-06T11:32:45.239Z,26.27
2023-04-06T11:35:13.744Z,26.32
2023-04-06T11:37:40.929Z,26.16
2023-04-06T11:40:10.252Z,26.19
2023-04-06T11:42:37.227Z,25.91
2023-04-06T11:45:08.772Z,25.99
2023-04-06T11:47:37.543Z,26.09
2023-04-06T11:50:08.720Z,26.22
2023-04-06T11:52:35.955Z,26.12
2023-04-06T11:55:13.382Z,26.67
2023-04-06T11:57:40.807Z,26.65
2023-04-06T12:00:10.988Z,26.94
2023-04-06T12:02:38.341Z,26.91
2023-04-06T12:05:07.390Z,26.66
2023-04-06T12:07:34.535Z,26.83
2023-04-06T12:10:03.595Z,26.90
2023-04-06T12:12:31.019Z,27.00
2023-04-06T12:14:58.141Z,26.83
2023-04-06T12:17:26.662Z,26.65
2023-04-06T12:19:53.663Z,26.73
2023-04-06T12:22:20.726Z,26.94
2023-04-06T12:24:47.875Z,26.89
2023-04-06T12:27:14.875Z,26.90
2023-04-06T12:29:41.931Z,26.79
2023-04-06T12:32:09.463Z,26.81
2023-04-06T12:34:38.751Z,26.90
2023-04-06T12:37:05.633Z,26.90
2023-04-06T12:39:32.593Z,26.91
2023-04-06T12:41:59.623Z,27.07
2023-04-06T12:44:27.146Z,26.94
2023-04-06T12:46:54.347Z,27.06
2023-04-06T12:49:21.328Z,27.04
2023-04-06T12:51:49.688Z,27.11
2023-04-06T12:54:16.726Z,27.24
2023-04-06T12:56:43.626Z,27.25
2023-04-06T12:59:10.985Z,27.23
2023-04-06T13:01:38.371Z,27.22
2023-04-06T13:04:05.225Z,27.20
2023-04-06T13:06:32.374Z,27.29
2023-04-06T13:09:01.143Z,27.15
2023-04-06T13:11:28.759Z,27.23
2023-04-06T13:13:56.017Z,27.26
2023-04-06T13:16:23.244Z,27.22
2023-04-06T13:18:51.252Z,27.45
2023-04-06T13:21:18.406Z,27.30
2023-04-06T13:23:45.534Z,27.26
2023-04-06T13:26:16.063Z,27.36
2023-04-06T13:28:43.500Z,27.24
2023-04-06T13:31:11.016Z,27.18
2023-04-06T13:33:38.235Z,27.18
2023-04-06T13:36:07.336Z,27.47
2023-04-06T13:38:34.685Z,27.28
2023-04-06T13:41:01.664Z,27.21
2023-04-06T13:43:30.049Z,27.04
2023-04-06T13:45:59.452Z,27.13
2023-04-06T13:48:27.139Z,27.13
2023-04-06T13:50:54.189Z,27.24
2023-04-06T13:53:21.306Z,26.97
2023-04-06T13:55:53.682Z,26.99
2023-04-06T13:58:20.819Z,26.97
2023-04-06T14:00:49.201Z,27.00
2023-04-06T14:03:16.476Z,27.04
2023-04-06T14:05:43.458Z,27.11
2023-04-06T14:08:10.727Z,26.99
2023-04-06T14:10:43.743Z,26.94
2023-04-06T14:13:10.742Z,27.00
2023-04-06T14:15:37.736Z,26.80
2023-04-06T14:18:07.009Z,26.82
2023-04-06T14:20:34.057Z,26.90
2023-04-06T14:23:01.365Z,27.21
2023-04-06T14:25:28.413Z,27.24
2023-04-06T14:27:55.301Z,27.35
2023-04-06T14:30:22.078Z,27.22
2023-04-06T14:32:49.220Z,27.14
2023-04-06T14:35:17.726Z,27.31
2023-04-06T14:37:44.465Z,27.25
2023-04-06T14:40:12.188Z,27.28
2023-04-06T14:42:38.963Z,27.35
2023-04-06T14:45:06.867Z,27.44
2023-04-06T14:47:33.664Z,27.43
2023-04-06T14:50:00.968Z,27.38
2023-04-06T14:52:30.664Z,27.38
2023-04-06T14:54:59.297Z,27.44
2023-04-06T14:57:26.111Z,27.38
2023-04-06T14:59:54.118Z,27.44
2023-04-06T15:02:21.189Z,27.45
2023-04-06T15:04:48.334Z,27.29
2023-04-06T15:07:15.690Z,27.43
2023-04-06T15:09:43.936Z,27.64
2023-04-06T15:12:10.734Z,27.51
2023-04-06T15:14:37.587Z,27.45
2023-04-06T15:17:04.423Z,27.33
2023-04-06T15:19:31.308Z,27.31
2023-04-06T15:21:59.635Z,27.19
2023-04-06T15:24:27.785Z,27.17
2023-04-06T15:26:56.527Z,27.01
2023-04-06T15:29:23.474Z,26.83
2023-04-06T15:31:50.477Z,26.88
2023-04-06T15:34:17.398Z,26.86
2023-04-06T15:36:46.596Z,26.98
2023-04-06T15:39:14.553Z,26.80
2023-04-06T15:41:41.392Z,26.96
2023-04-06T15:44:09.649Z,27.02
2023-04-06T15:46:36.591Z,27.08
2023-04-06T15:49:03.963Z,27.11
2023-04-06T15:51:31.561Z,27.01
2023-04-06T15:53:58.696Z,27.10
2023-04-06T15:56:25.594Z,27.11
2023-04-06T15:58:52.549Z,27.07
2023-04-06T16:01:20.903Z,27.09
2023-04-06T16:03:47.922Z,27.18
2023-04-06T16:06:15.002Z,26.99
2023-04-06T16:08:42.196Z,26.91
2023-04-06T16:11:09.326Z,27.05
2023-04-06T16:13:36.959Z,26.90
2023-04-06T16:16:04.696Z,26.94
2023-04-06T16:18:35.781Z,26.90
2023-04-06T16:21:04.141Z,27.13
2023-04-06T16:23:31.264Z,26.83
2023-04-06T16:25:58.183Z,26.95
2023-04-06T16:28:25.781Z,27.06
2023-04-06T16:30:52.811Z,26.69
2023-04-06T16:33:19.722Z,26.90
2023-04-06T16:35:48.553Z,26.70
2023-04-06T16:38:16.197Z,26.62
2023-04-06T16:40:43.078Z,26.71
2023-04-06T16:43:10.191Z,26.60
2023-04-06T16:45:38.073Z,26.51
2023-04-06T16:48:05.115Z,26.47
2023-04-06T16:50:32.282Z,26.48
2023-04-06T16:53:00.628Z,26.85
2023-04-06T16:55:27.493Z,26.54
2023-04-06T16:57:55.896Z,26.78
2023-04-06T17:00:25.890Z,26.52
2023-04-06T17:02:53.107Z,26.48
2023-04-06T17:05:26.750Z,26.17
2023-04-06T17:07:56.513Z,26.52
2023-04-06T17:10:33.173Z,26.36
2023-04-06T17:13:01.442Z,26.32
2023-04-06T17:15:29.827Z,26.23
2023-04-06T17:17:57.670Z,26.11
2023-04-06T17:20:25.016Z,26.16
2023-04-06T17:22:51.878Z,25.95
2023-04-06T17:25:18.996Z,26.19
2023-04-06T17:27:47.530Z,26.24
2023-04-06T17:30:17.020Z,26.09
2023-04-06T17:32:45.748Z,26.24
2023-04-06T17:35:12.624Z,26.28
2023-04-06T17:37:40.468Z,25.83
2023-04-06T17:40:08.492Z,26.27
2023-04-06T17:42:35.422Z,26.07
2023-04-06T17:45:03.948Z,26.40
2023-04-06T17:47:32.190Z,26.10
2023-04-06T17:49:59.234Z,26.12
2023-04-06T17:52:27.143Z,26.03
2023-04-06T17:54:54.492Z,26.27
2023-04-06T17:57:21.482Z,26.29
2023-04-06T17:59:48.613Z,26.22
2023-04-06T18:02:17.216Z,26.08
2023-04-06T18:04:44.421Z,26.31
2023-04-06T18:07:11.611Z,25.80
2023-04-06T18:09:38.899Z,25.99
2023-04-06T18:12:06.094Z,25.87
2023-04-06T18:14:32.930Z,26.11
2023-04-06T18:16:59.996Z,26.22
2023-04-06T18:19:28.934Z,26.26
2023-04-06T18:21:55.953Z,25.90
2023-04-06T18:24:32.145Z,26.17
2023-04-06T18:27:08.289Z,26.10
2023-04-06T18:29:37.093Z,26.11
2023-04-06T18:32:06.850Z,26.28
2023-04-06T18:34:35.314Z,26.30
2023-04-06T18:37:02.559Z,25.85
2023-04-06T18:39:29.467Z,25.89
2023-04-06T18:41:56.651Z,25.85
2023-04-06T18:44:23.482Z,26.20
2023-04-06T18:46:52.599Z,25.79
2023-04-06T18:49:21.513Z,25.85
2023-04-06T18:51:49.814Z,26.11
2023-04-06T18:54:16.866Z,26.15
2023-04-06T18:56:43.647Z,26.09
2023-04-06T18:59:10.757Z,26.44
2023-04-06T19:01:40.932Z,26.00
2023-04-06T19:04:07.996Z,26.02
2023-04-06T19:06:35.001Z,26.01
2023-04-06T19:09:05.032Z,25.86
2023-04-06T19:11:32.498Z,25.94
2023-04-06T19:13:59.356Z,26.08
2023-04-06T19:16:27.423Z,25.92
2023-04-06T19:18:54.446Z,25.94
2023-04-06T19:21:23.085Z,26.17
2023-04-06T19:23:51.720Z,26.01
2023-04-06T19:26:22.069Z,25.93
2023-04-06T19:28:49.168Z,25.86
2023-04-06T19:31:18.166Z,26.20
2023-04-06T19:33:46.867Z,25.93
2023-04-06T19:36:14.049Z,26.05
2023-04-06T19:38:40.967Z,26.07
2023-04-06T19:41:08.171Z,26.00
2023-04-06T19:43:36.836Z,26.09
2023-04-06T19:46:04.610Z,25.83
2023-04-06T19:48:33.706Z,25.92
2023-04-06T19:51:00.856Z,25.93
2023-04-06T19:53:27.797Z,25.95
2023-04-06T19:55:54.659Z,26.08
2023-04-06T19:58:21.673Z,25.90
2023-04-06T20:00:49.837Z,25.46
2023-04-06T20:03:17.030Z,25.88
2023-04-06T20:05:44.007Z,25.59
2023-04-06T20:08:10.854Z,25.56
2023-04-06T20:10:37.768Z,25.81
2023-04-06T20:13:04.626Z,25.66
2023-04-06T20:15:31.719Z,25.93
2023-04-06T20:18:00.024Z,25.99
2023-04-06T20:20:26.964Z,25.90
2023-04-06T20:22:54.193Z,26.02
2023-04-06T20:25:21.965Z,25.74
2023-04-06T20:27:49.102Z,25.77
2023-04-06T20:30:16.661Z,26.00
2023-04-06T20:32:43.775Z,25.85
2023-04-06T20:35:12.150Z,26.10
2023-04-06T20:37:39.219Z,26.26
2023-04-06T20:40:07.438Z,26.36
2023-04-06T20:42:34.699Z,26.25
2023-04-06T20:45:03.306Z,26.14
2023-04-06T20:47:31.569Z,26.40
2023-04-06T20:49:58.634Z,26.52
2023-04-06T20:52:27.668Z,26.56
2023-04-06T20:54:54.882Z,26.29
2023-04-06T20:57:22.122Z,26.39
2023-04-06T20:59:48.927Z,26.52
2023-04-06T21:02:16.149Z,26.43
2023-04-06T21:04:43.956Z,26.38
2023-04-06T21:07:11.027Z,26.44
2023-04-06T21:09:40.399Z,26.79
2023-04-06T21:12:08.256Z,26.50
2023-04-06T21:14:35.416Z,26.47
2023-04-06T21:17:02.429Z,26.56
2023-04-06T21:19:29.337Z,26.63
2023-04-06T21:21:56.661Z,26.54
2023-04-06T21:24:23.604Z,26.57
2023-04-06T21:26:51.805Z,27.00
2023-04-06T21:29:18.727Z,26.78
2023-04-06T21:31:45.784Z,26.60
2023-04-06T21:34:14.211Z,26.59
2023-04-06T21:36:41.562Z,26.74
2023-04-06T21:39:08.576Z,26.73
2023-04-06T21:41:35.931Z,26.65
2023-04-06T21:44:04.410Z,26.59
2023-04-06T21:46:31.403Z,26.91
2023-04-06T21:48:58.440Z,26.94
2023-04-06T21:51:26.508Z,27.10
2023-04-06T21:53:53.796Z,26.97
2023-04-06T21:56:22.099Z,27.02
2023-04-06T21:58:49.022Z,27.26
2023-04-06T22:01:17.957Z,27.21
2023-04-06T22:03:45.275Z,27.18
2023-04-06T22:06:12.438Z,27.21
2023-04-06T22:08:39.285Z,27.26
2023-04-06T22:11:11.210Z,27.31
2023-04-06T22:13:38.658Z,27.45
2023-04-06T22:16:06.716Z,27.31
2023-04-06T22:18:36.707Z,27.37
2023-04-06T22:21:05.670Z,27.46
2023-04-06T22:23:32.859Z,27.42
2023-04-06T22:25:59.887Z,27.67
2023-04-06T22:28:27.370Z,27.53
2023-04-06T22:30:54.278Z,27.48
2023-04-06T22:33:21.530Z,27.67
2023-04-06T22:35:49.897Z,27.69
2023-04-06T22:38:16.711Z,27.43
2023-04-06T22:40:43.572Z,27.64
2023-04-06T22:43:10.437Z,27.56
2023-04-06T22:45:37.543Z,27.75
2023-04-06T22:48:04.432Z,27.56
2023-04-06T22:50:31.657Z,27.45
2023-04-06T22:52:59.847Z,27.73
2023-04-06T22:55:26.765Z,27.58
2023-04-06T22:57:53.732Z,27.81
2023-04-06T23:00:20.676Z,27.75
2023-04-06T23:02:47.606Z,27.68
2023-04-06T23:05:14.611Z,27.74
2023-04-06T23:07:41.417Z,27.65
2023-04-06T23:10:10.798Z,27.70
2023-04-06T23:12:37.672Z,27.56
2023-04-06T23:15:05.054Z,27.75
2023-04-06T23:17:31.875Z,27.62
2023-04-06T23:19:58.769Z,27.59
2023-04-06T23:22:25.540Z,27.47
2023-04-06T23:24:52.440Z,27.66
2023-04-06T23:27:20.665Z,27.43
2023-04-06T23:29:47.458Z,27.78
2023-04-06T23:32:14.397Z,27.76
2023-04-06T23:34:41.459Z,27.61
2023-04-06T23:37:08.428Z,27.49
2023-04-06T23:39:35.986Z,27.44
2023-04-06T23:42:02.957Z,27.92
2023-04-06T23:44:31.406Z,27.72
2023-04-06T23:46:58.304Z,27.78
2023-04-06T23:49:25.306Z,27.82
2023-04-06T23:51:52.161Z,27.70
2023-04-06T23:54:19.086Z,27.67
2023-04-06T23:56:46.412Z,27.61
2023-04-06T23:59:13.371Z,27.80
